createdAt,value
2019-03-20T00:00:11.316Z,0.79
2019-03-20T00:03:18.870Z,0.84
2019-03-20T00:06:26.031Z,0.90
2019-03-20T00:09:33.457Z,1.09
2019-03-20T00:12:41.053Z,1.13
2019-03-20T00:15:48.652Z,0.74
2019-03-20T00:18:55.806Z,1.18
2019-03-20T00:22:03.579Z,0.96
2019-03-20T00:25:11.376Z,0.72
2019-03-20T00:28:18.727Z,0.89
2019-03-20T00:31:26.341Z,0.93
2019-03-20T00:34:33.516Z,0.77
2019-03-20T00:37:41.329Z,0.73
2019-03-20T00:40:48.952Z,0.75
2019-03-20T00:43:56.628Z,0.77
2019-03-20T00:47:04.128Z,0.85
2019-03-20T00:50:13.344Z,0.95
2019-03-20T00:53:20.504Z,1.10
2019-03-20T00:56:27.658Z,1.16
2019-03-20T00:59:34.822Z,1.42
2019-03-20T01:02:41.980Z,1.07
2019-03-20T01:05:49.519Z,1.11
2019-03-20T01:08:56.767Z,1.16
2019-03-20T01:12:04.022Z,0.98
2019-03-20T01:15:11.771Z,0.92
2019-03-20T01:18:18.955Z,0.87
2019-03-20T01:21:26.429Z,0.91
2019-03-20T01:24:33.922Z,0.84
2019-03-20T01:27:41.284Z,1.12
2019-03-20T01:30:48.913Z,0.79
2019-03-20T01:33:56.382Z,0.79
2019-03-20T01:37:03.751Z,0.65
2019-03-20T01:40:11.010Z,0.42
2019-03-20T01:43:18.379Z,0.33
2019-03-20T01:46:25.554Z,0.53
2019-03-20T01:49:32.983Z,0.60
2019-03-20T01:52:40.149Z,0.41
2019-03-20T01:55:47.653Z,0.33
2019-03-20T01:58:54.901Z,0.23
2019-03-20T02:02:02.957Z,0.43
2019-03-20T02:05:10.507Z,0.47
2019-03-20T02:08:17.763Z,0.25
2019-03-20T02:11:25.022Z,0.57
2019-03-20T02:14:32.172Z,0.26
2019-03-20T02:17:39.816Z,0.07
2019-03-20T02:20:47.275Z,0.30
2019-03-20T02:23:54.525Z,0.21
2019-03-20T02:27:02.003Z,0.08
2019-03-20T02:30:14.076Z,0.15
2019-03-20T02:33:21.419Z,0.12
2019-03-20T02:36:28.930Z,0.39
2019-03-20T02:39:36.103Z,0.25
2019-03-20T02:42:43.712Z,0.04
2019-03-20T02:45:50.859Z,-0.14
2019-03-20T02:48:58.874Z,-0.34
2019-03-20T02:52:06.041Z,-0.43
2019-03-20T02:55:13.729Z,-0.50
2019-03-20T02:58:21.160Z,-0.57
2019-03-20T03:01:28.555Z,-0.78
2019-03-20T03:04:35.828Z,-0.92
2019-03-20T03:07:43.406Z,-0.86
2019-03-20T03:10:50.668Z,-0.92
2019-03-20T03:13:58.179Z,-0.97
2019-03-20T03:17:05.643Z,-0.91
2019-03-20T03:20:13.110Z,-0.88
2019-03-20T03:23:20.390Z,-0.98
2019-03-20T03:26:27.539Z,-0.98
2019-03-20T03:29:34.970Z,-1.09
2019-03-20T03:32:42.786Z,-1.09
2019-03-20T03:35:50.018Z,-0.96
2019-03-20T03:38:57.190Z,-0.97
2019-03-20T03:42:05.381Z,-1.20
2019-03-20T03:45:12.790Z,-1.27
2019-03-20T03:48:20.221Z,-1.24
2019-03-20T03:51:27.406Z,-1.26
2019-03-20T03:54:34.680Z,-1.40
2019-03-20T03:57:42.355Z,-1.40
2019-03-20T04:00:49.638Z,-1.31
2019-03-20T04:03:56.904Z,-1.43
2019-03-20T04:07:04.411Z,-1.40
2019-03-20T04:10:11.889Z,-1.55
2019-03-20T04:13:19.157Z,-1.47
2019-03-20T04:16:26.340Z,-1.19
2019-03-20T04:19:33.631Z,-1.38
2019-03-20T04:22:41.315Z,-1.60
2019-03-20T04:25:48.463Z,-1.67
2019-03-20T04:28:55.626Z,-1.58
2019-03-20T04:32:03.120Z,-1.61
2019-03-20T04:35:11.108Z,-1.57
2019-03-20T04:38:18.482Z,-1.73
2019-03-20T04:41:25.747Z,-1.74
2019-03-20T04:44:32.973Z,-1.62
2019-03-20T04:47:40.259Z,-1.68
2019-03-20T04:50:47.739Z,-1.82
2019-03-20T04:53:54.958Z,-1.78
2019-03-20T04:57:02.555Z,-1.79
2019-03-20T05:00:13.041Z,-1.73
2019-03-20T05:03:20.630Z,-1.73
2019-03-20T05:06:27.829Z,-1.72
2019-03-20T05:09:35.644Z,-1.73
2019-03-20T05:12:43.309Z,-1.79
2019-03-20T05:15:50.598Z,-1.89
2019-03-20T05:18:57.818Z,-1.96
2019-03-20T05:22:05.628Z,-1.88
2019-03-20T05:25:13.474Z,-1.77
2019-03-20T05:28:20.967Z,-1.63
2019-03-20T05:31:28.511Z,-1.63
2019-03-20T05:34:56.053Z,-1.72
2019-03-20T05:38:03.851Z,-1.73
2019-03-20T05:41:11.161Z,-1.59
2019-03-20T05:44:18.336Z,-1.54
2019-03-20T05:47:25.603Z,-1.49
2019-03-20T05:50:33.160Z,-1.36
2019-03-20T05:53:40.435Z,-1.33
2019-03-20T05:56:47.769Z,-1.27
2019-03-20T05:59:55.363Z,-1.21
2019-03-20T06:03:04.016Z,-1.12
2019-03-20T06:06:11.499Z,-1.08
2019-03-20T06:09:18.822Z,-0.96
2019-03-20T06:12:25.985Z,-0.97
2019-03-20T06:15:33.147Z,-0.88
2019-03-20T06:18:40.429Z,-0.80
2019-03-20T06:21:47.596Z,-0.72
2019-03-20T06:24:55.007Z,-0.79
2019-03-20T06:28:02.636Z,-0.60
2019-03-20T06:31:09.930Z,-0.36
2019-03-20T06:34:17.533Z,-0.22
2019-03-20T06:37:32.206Z,-0.19
2019-03-20T06:40:34.193Z,-0.02
2019-03-20T06:43:41.357Z,0.45
2019-03-20T06:46:48.529Z,0.44
2019-03-20T06:49:56.016Z,0.55
2019-03-20T06:53:03.740Z,0.84
2019-03-20T06:56:11.037Z,0.90
2019-03-20T07:00:29.709Z,1.83
2019-03-20T07:04:23.169Z,3.55
2019-03-20T07:07:43.989Z,5.35
2019-03-20T07:11:10.657Z,6.72
2019-03-20T07:14:18.020Z,7.41
2019-03-20T07:17:25.369Z,6.56
2019-03-20T07:23:47.667Z,8.15
2019-03-20T07:26:54.975Z,9.00
2019-03-20T07:30:04.871Z,9.49
2019-03-20T07:33:12.545Z,9.86
2019-03-20T07:36:20.249Z,9.24
2019-03-20T07:39:27.512Z,8.69
2019-03-20T07:42:35.115Z,8.65
2019-03-20T07:45:42.854Z,7.98
2019-03-20T07:48:50.596Z,7.85
2019-03-20T07:51:58.145Z,7.67
2019-03-20T07:55:05.813Z,8.21
2019-03-20T07:58:13.102Z,8.21
2019-03-20T08:01:20.845Z,8.27
2019-03-20T08:04:28.103Z,7.81
2019-03-20T08:07:35.273Z,7.45
2019-03-20T08:10:42.572Z,7.25
2019-03-20T08:13:50.077Z,7.32
2019-03-20T08:16:57.242Z,7.38
2019-03-20T08:20:06.479Z,7.23
2019-03-20T08:23:14.557Z,7.14
2019-03-20T08:26:22.244Z,7.74
2019-03-20T08:29:29.949Z,8.28
2019-03-20T08:32:37.222Z,8.06
2019-03-20T08:35:44.479Z,6.88
2019-03-20T08:38:51.821Z,6.78
2019-03-20T08:45:25.648Z,7.48
2019-03-20T08:48:32.982Z,6.87
2019-03-20T08:51:40.615Z,7.40
2019-03-20T08:54:47.823Z,7.76
2019-03-20T08:57:55.251Z,7.18
2019-03-20T09:01:03.192Z,7.49
2019-03-20T09:04:10.946Z,7.94
2019-03-20T09:07:18.948Z,8.04
2019-03-20T09:10:26.753Z,8.16
2019-03-20T09:13:34.185Z,8.89
2019-03-20T09:16:41.392Z,9.01
2019-03-20T09:19:48.575Z,8.73
2019-03-20T09:22:56.348Z,8.22
2019-03-20T09:26:04.166Z,8.42
2019-03-20T09:29:18.472Z,8.44
2019-03-20T09:32:21.030Z,8.50
2019-03-20T09:35:29.190Z,9.00
2019-03-20T09:38:43.474Z,9.13
2019-03-20T09:41:45.931Z,9.34
2019-03-20T09:44:53.225Z,9.40
2019-03-20T09:48:00.532Z,9.46
2019-03-20T09:51:08.836Z,10.02
2019-03-20T09:54:16.397Z,10.37
2019-03-20T09:57:23.584Z,10.82
2019-03-20T10:00:31.180Z,10.79
2019-03-20T10:03:38.895Z,10.23
2019-03-20T10:06:47.376Z,10.20
2019-03-20T10:09:54.931Z,11.05
2019-03-20T10:13:02.146Z,11.48
2019-03-20T10:16:09.400Z,11.56
2019-03-20T10:19:17.230Z,11.97
2019-03-20T10:22:24.403Z,11.90
2019-03-20T10:25:31.671Z,11.43
2019-03-20T10:28:39.477Z,11.21
2019-03-20T10:31:47.085Z,10.60
2019-03-20T10:34:54.549Z,10.24
2019-03-20T10:38:02.138Z,9.82
2019-03-20T10:41:09.986Z,9.94
2019-03-20T10:44:17.310Z,10.05
2019-03-20T10:47:24.508Z,10.26
2019-03-20T10:50:32.097Z,10.19
2019-03-20T10:53:39.784Z,10.09
2019-03-20T10:56:47.195Z,10.15
2019-03-20T10:59:54.713Z,10.80
2019-03-20T11:03:02.421Z,11.10
2019-03-20T11:06:09.878Z,11.75
2019-03-20T11:09:18.529Z,11.64
2019-03-20T11:12:26.518Z,11.50
2019-03-20T11:15:34.023Z,11.44
2019-03-20T11:18:41.604Z,11.10
2019-03-20T11:21:49.316Z,10.94
2019-03-20T11:24:57.239Z,11.55
2019-03-20T11:28:04.674Z,11.67
2019-03-20T11:31:12.272Z,11.62
2019-03-20T11:34:20.310Z,10.81
2019-03-20T11:37:28.034Z,10.83
2019-03-20T11:40:35.638Z,10.57
2019-03-20T11:43:42.962Z,10.44
2019-03-20T11:46:50.409Z,9.89
2019-03-20T11:49:58.302Z,9.30
2019-03-20T11:53:05.883Z,8.92
2019-03-20T11:56:13.296Z,8.75
2019-03-20T11:59:20.868Z,8.97
2019-03-20T12:02:28.693Z,8.96
2019-03-20T12:05:36.033Z,8.24
2019-03-20T12:08:43.451Z,8.56
2019-03-20T12:11:50.670Z,8.55
2019-03-20T12:14:58.226Z,8.88
2019-03-20T12:18:05.634Z,8.97
2019-03-20T12:21:13.040Z,9.22
2019-03-20T12:24:20.875Z,9.57
2019-03-20T12:27:28.633Z,9.53
2019-03-20T12:30:36.591Z,9.26
2019-03-20T12:33:44.789Z,8.66
2019-03-20T12:36:52.307Z,8.80
2019-03-20T12:39:59.775Z,9.41
2019-03-20T12:43:07.667Z,9.19
2019-03-20T12:46:15.134Z,9.08
2019-03-20T12:49:22.636Z,8.88
2019-03-20T12:52:30.041Z,8.78
2019-03-20T12:55:37.254Z,8.96
2019-03-20T12:58:44.566Z,9.03
2019-03-20T13:01:52.139Z,8.44
2019-03-20T13:04:59.664Z,9.06
2019-03-20T13:08:07.304Z,9.55
2019-03-20T13:11:15.114Z,9.69
2019-03-20T13:14:22.914Z,9.28
2019-03-20T13:17:30.391Z,9.18
2019-03-20T13:20:37.901Z,9.03
2019-03-20T13:23:45.272Z,8.83
2019-03-20T13:26:52.932Z,8.62
2019-03-20T13:30:00.866Z,8.39
2019-03-20T13:33:09.118Z,8.46
2019-03-20T13:36:16.454Z,8.26
2019-03-20T13:39:24.148Z,8.45
2019-03-20T13:42:31.454Z,8.70
2019-03-20T13:45:39.119Z,8.75
2019-03-20T13:48:46.692Z,8.96
2019-03-20T13:51:54.766Z,9.12
2019-03-20T13:55:02.318Z,9.13
2019-03-20T13:58:09.631Z,8.96
2019-03-20T14:01:17.792Z,8.71
2019-03-20T14:04:25.914Z,8.46
2019-03-20T14:07:33.499Z,8.35
2019-03-20T14:10:50.341Z,8.21
2019-03-20T14:13:50.847Z,8.16
2019-03-20T14:16:58.613Z,8.31
2019-03-20T14:20:10.149Z,8.31
2019-03-20T14:23:17.682Z,8.18
2019-03-20T14:26:25.586Z,8.24
2019-03-20T14:29:33.076Z,8.04
2019-03-20T14:32:41.020Z,7.93
2019-03-20T14:35:48.964Z,8.01
2019-03-20T14:38:56.365Z,8.07
2019-03-20T14:42:03.998Z,8.15
2019-03-20T14:45:13.019Z,8.36
2019-03-20T14:48:20.974Z,8.49
2019-03-20T14:51:28.590Z,8.57
2019-03-20T14:54:36.099Z,8.56
2019-03-20T14:57:44.686Z,8.38
2019-03-20T15:00:52.801Z,8.43
2019-03-20T15:04:00.811Z,8.46
2019-03-20T15:07:08.638Z,8.38
2019-03-20T15:10:17.892Z,8.34
2019-03-20T15:13:25.677Z,8.22
2019-03-20T15:16:33.551Z,8.25
2019-03-20T15:19:41.005Z,8.20
2019-03-20T15:22:48.602Z,8.23
2019-03-20T15:25:57.391Z,8.23
2019-03-20T15:29:05.146Z,8.23
2019-03-20T15:32:12.868Z,8.15
2019-03-20T15:35:21.397Z,8.11
2019-03-20T15:38:29.810Z,8.03
2019-03-20T15:41:37.748Z,7.99
2019-03-20T15:44:45.393Z,8.11
2019-03-20T15:47:53.078Z,8.12
2019-03-20T15:51:00.556Z,8.13
2019-03-20T15:54:08.341Z,7.98
2019-03-20T15:57:15.924Z,7.88
2019-03-20T16:00:23.465Z,7.86
2019-03-20T16:03:31.274Z,7.78
2019-03-20T16:06:38.828Z,7.71
2019-03-20T16:09:46.243Z,7.71
2019-03-20T16:12:54.774Z,7.67
2019-03-20T16:16:02.753Z,7.59
2019-03-20T16:19:11.200Z,7.52
2019-03-20T16:22:18.841Z,7.57
2019-03-20T16:25:26.348Z,7.54
2019-03-20T16:28:34.003Z,7.38
2019-03-20T16:31:41.639Z,7.41
2019-03-20T16:34:48.977Z,7.34
2019-03-20T16:37:56.819Z,7.22
2019-03-20T16:41:05.116Z,7.26
2019-03-20T16:44:13.730Z,7.03
2019-03-20T16:47:21.473Z,6.96
2019-03-20T16:50:29.560Z,6.82
2019-03-20T16:53:37.411Z,6.77
2019-03-20T16:56:45.957Z,6.58
2019-03-20T16:59:54.823Z,6.52
2019-03-20T17:03:02.755Z,6.32
2019-03-20T17:06:10.427Z,6.30
2019-03-20T17:09:17.874Z,6.15
2019-03-20T17:12:26.357Z,6.21
2019-03-20T17:15:34.264Z,6.17
2019-03-20T17:18:41.618Z,5.88
2019-03-20T17:21:49.676Z,5.87
2019-03-20T17:24:57.304Z,5.80
2019-03-20T17:28:05.614Z,5.57
2019-03-20T17:31:13.050Z,5.35
2019-03-20T17:34:20.997Z,5.32
2019-03-20T17:37:28.630Z,5.18
2019-03-20T17:40:36.396Z,5.14
2019-03-20T17:43:44.428Z,4.69
2019-03-20T17:46:51.837Z,4.38
2019-03-20T17:50:00.343Z,4.21
2019-03-20T17:53:08.075Z,4.13
2019-03-20T17:56:15.455Z,4.05
2019-03-20T17:59:23.114Z,3.97
2019-03-20T18:02:30.574Z,3.87
2019-03-20T18:05:38.458Z,3.85
2019-03-20T18:08:45.832Z,3.90
2019-03-20T18:11:53.630Z,3.66
2019-03-20T18:15:01.315Z,3.42
2019-03-20T18:18:08.831Z,3.32
2019-03-20T18:21:16.139Z,3.20
2019-03-20T18:24:23.415Z,3.03
2019-03-20T18:27:31.095Z,3.04
2019-03-20T18:30:39.261Z,2.90
2019-03-20T18:33:47.005Z,2.77
2019-03-20T18:36:54.604Z,2.72
2019-03-20T18:40:03.134Z,2.73
2019-03-20T18:43:10.755Z,2.66
2019-03-20T18:46:19.498Z,2.63
2019-03-20T18:49:27.067Z,2.40
2019-03-20T18:52:34.604Z,2.40
2019-03-20T18:55:42.177Z,2.29
2019-03-20T18:58:49.728Z,2.22
2019-03-20T19:01:57.571Z,2.14
2019-03-20T19:05:08.040Z,2.00
2019-03-20T19:08:15.774Z,2.01
2019-03-20T19:11:23.488Z,1.92
2019-03-20T19:14:31.290Z,1.88
2019-03-20T19:17:39.231Z,1.78
2019-03-20T19:20:46.679Z,1.61
2019-03-20T19:23:54.391Z,1.60
2019-03-20T19:27:01.783Z,1.47
2019-03-20T19:30:14.702Z,1.38
2019-03-20T19:33:22.401Z,1.33
2019-03-20T19:36:29.898Z,1.35
2019-03-20T19:39:37.407Z,1.22
2019-03-20T19:42:45.197Z,1.11
2019-03-20T19:45:52.746Z,1.16
2019-03-20T19:49:00.224Z,1.10
2019-03-20T19:52:07.897Z,1.09
2019-03-20T19:55:15.725Z,1.02
2019-03-20T19:58:23.903Z,0.91
2019-03-20T20:01:31.760Z,0.79
2019-03-20T20:04:39.534Z,0.77
2019-03-20T20:07:47.971Z,0.74
2019-03-20T20:10:59.330Z,0.80
2019-03-20T20:14:07.449Z,0.74
2019-03-20T20:17:15.700Z,0.69
2019-03-20T20:20:24.563Z,0.60
2019-03-20T20:23:31.896Z,0.46
2019-03-20T20:26:39.932Z,0.63
2019-03-20T20:29:47.374Z,0.45
2019-03-20T20:32:55.345Z,0.39
2019-03-20T20:36:03.122Z,0.30
2019-03-20T20:39:11.164Z,0.22
2019-03-20T20:42:18.846Z,0.32
2019-03-20T20:45:26.656Z,0.27
2019-03-20T20:48:34.652Z,0.17
2019-03-20T20:51:42.228Z,0.35
2019-03-20T20:54:50.214Z,0.35
2019-03-20T20:57:58.374Z,0.25
2019-03-20T21:01:05.931Z,0.28
2019-03-20T21:04:13.784Z,0.44
2019-03-20T21:07:21.740Z,0.27
2019-03-20T21:10:29.525Z,0.09
2019-03-20T21:13:37.636Z,-0.09
2019-03-20T21:16:45.880Z,-0.13
2019-03-20T21:19:54.281Z,-0.18
2019-03-20T21:24:03.770Z,-0.20
2019-03-20T21:28:29.656Z,-0.33
2019-03-20T21:31:54.762Z,-0.22
2019-03-20T21:36:10.624Z,-0.26
2019-03-20T21:39:19.378Z,-0.30
2019-03-20T21:43:29.908Z,-0.43
2019-03-20T21:47:24.710Z,-0.44
2019-03-20T21:51:13.525Z,-0.38
2019-03-20T21:55:25.753Z,-0.49
2019-03-20T21:59:23.325Z,-0.55
2019-03-20T22:02:45.852Z,-0.61
2019-03-20T22:06:50.863Z,-0.53
2019-03-20T22:11:24.732Z,-0.68
2019-03-20T22:14:33.354Z,-0.73
2019-03-20T22:18:58.706Z,-0.78
2019-03-20T22:22:48.742Z,-0.74
2019-03-20T22:27:05.109Z,-0.89
2019-03-20T22:30:13.658Z,-0.80
2019-03-20T22:34:23.451Z,-0.94
2019-03-20T22:37:31.681Z,-0.87
2019-03-20T22:41:43.707Z,-0.80
2019-03-20T22:45:14.530Z,-0.99
2019-03-20T22:48:56.752Z,-1.13
2019-03-20T22:52:58.198Z,-1.07
2019-03-20T22:57:06.400Z,-1.02
2019-03-20T23:00:15.362Z,-1.16
2019-03-20T23:03:37.919Z,-1.12
2019-03-20T23:06:46.162Z,-1.17
2019-03-20T23:09:55.137Z,-1.16
2019-03-20T23:13:03.417Z,-1.18
2019-03-20T23:16:15.235Z,-1.22
2019-03-20T23:19:23.349Z,-1.18
2019-03-20T23:22:32.175Z,-1.22
2019-03-20T23:25:40.923Z,-1.22
2019-03-20T23:28:49.447Z,-1.22
2019-03-20T23:31:57.861Z,-1.29
2019-03-20T23:35:06.772Z,-1.31
2019-03-20T23:38:15.018Z,-1.36
2019-03-20T23:41:23.120Z,-1.35
2019-03-20T23:44:32.235Z,-1.39
2019-03-20T23:47:57.898Z,-1.51
2019-03-20T23:51:10.693Z,-1.53
2019-03-20T23:54:24.167Z,-1.60
2019-03-20T23:57:32.246Z,-1.49
